sensor_id;sensor_type;location;lat;lon;timestamp;temperature;humidity
76878;DHT22;65843;50.692;12.844;2023-03-21T00:00:59;19.10;53.50
76878;DHT22;65843;50.692;12.844;2023-03-21T00:02:03;19.10;53.70
76878;DHT22;65843;50.692;12.844;2023-03-21T00:03:04;19.10;53.50
76878;DHT22;65843;50.692;12.844;2023-03-21T00:04:05;19.10;53.20
76878;DHT22;65843;50.692;12.844;2023-03-21T00:05:06;19.10;53.50
76878;DHT22;65843;50.692;12.844;2023-03-21T00:06:08;19.10;53.60
76878;DHT22;65843;50.692;12.844;2023-03-21T00:07:10;19.10;53.50
76878;DHT22;65843;50.692;12.844;2023-03-21T00:08:11;19.10;53.50
76878;DHT22;65843;50.692;12.844;2023-03-21T00:09:12;19.10;53.70
76878;DHT22;65843;50.692;12.844;2023-03-21T00:10:13;19.10;53.60
76878;DHT22;65843;50.692;12.844;2023-03-21T00:11:14;19.10;53.50
76878;DHT22;65843;50.692;12.844;2023-03-21T00:12:16;19.10;53.30
76878;DHT22;65843;50.692;12.844;2023-03-21T00:13:20;19.10;53.40
76878;DHT22;65843;50.692;12.844;2023-03-21T00:14:21;19.10;53.00
76878;DHT22;65843;50.692;12.844;2023-03-21T00:15:23;19.10;53.40
76878;DHT22;65843;50.692;12.844;2023-03-21T00:16:27;19.10;53.10
76878;DHT22;65843;50.692;12.844;2023-03-21T00:17:30;19.10;53.20
76878;DHT22;65843;50.692;12.844;2023-03-21T00:18:32;19.10;53.30
76878;DHT22;65843;50.692;12.844;2023-03-21T00:19:36;19.00;53.00
76878;DHT22;65843;50.692;12.844;2023-03-21T00:20:38;19.10;53.00
76878;DHT22;65843;50.692;12.844;2023-03-21T00:21:39;19.00;53.00
76878;DHT22;65843;50.692;12.844;2023-03-21T00:22:42;19.00;53.00
76878;DHT22;65843;50.692;12.844;2023-03-21T00:23:43;19.00;52.90
76878;DHT22;65843;50.692;12.844;2023-03-21T00:24:45;19.00;52.90
76878;DHT22;65843;50.692;12.844;2023-03-21T00:25:46;19.00;52.90
76878;DHT22;65843;50.692;12.844;2023-03-21T00:26:48;19.00;53.10
76878;DHT22;65843;50.692;12.844;2023-03-21T00:27:49;19.00;53.10
76878;DHT22;65843;50.692;12.844;2023-03-21T00:28:50;19.00;53.20
76878;DHT22;65843;50.692;12.844;2023-03-21T00:29:51;19.00;53.00
76878;DHT22;65843;50.692;12.844;2023-03-21T00:30:58;19.00;53.10
76878;DHT22;65843;50.692;12.844;2023-03-21T00:31:59;19.00;53.10
76878;DHT22;65843;50.692;12.844;2023-03-21T00:33:00;19.00;53.20
76878;DHT22;65843;50.692;12.844;2023-03-21T00:34:01;19.00;52.90
76878;DHT22;65843;50.692;12.844;2023-03-21T00:35:02;19.00;52.90
76878;DHT22;65843;50.692;12.844;2023-03-21T00:36:03;19.00;53.00
76878;DHT22;65843;50.692;12.844;2023-03-21T00:37:04;19.00;53.10
76878;DHT22;65843;50.692;12.844;2023-03-21T00:38:06;19.00;53.10
76878;DHT22;65843;50.692;12.844;2023-03-21T00:39:07;19.00;53.20
76878;DHT22;65843;50.692;12.844;2023-03-21T00:40:08;19.00;53.30
76878;DHT22;65843;50.692;12.844;2023-03-21T00:41:10;19.00;53.40
76878;DHT22;65843;50.692;12.844;2023-03-21T00:42:14;19.00;53.10
76878;DHT22;65843;50.692;12.844;2023-03-21T00:43:15;19.00;53.10
76878;DHT22;65843;50.692;12.844;2023-03-21T00:44:19;19.00;53.20
76878;DHT22;65843;50.692;12.844;2023-03-21T00:45:20;19.00;53.50
76878;DHT22;65843;50.692;12.844;2023-03-21T00:46:21;19.00;53.60
76878;DHT22;65843;50.692;12.844;2023-03-21T00:47:22;19.00;53.50
76878;DHT22;65843;50.692;12.844;2023-03-21T00:48:24;19.00;53.50
76878;DHT22;65843;50.692;12.844;2023-03-21T00:49:25;19.00;53.50
76878;DHT22;65843;50.692;12.844;2023-03-21T00:50:25;19.00;53.50
76878;DHT22;65843;50.692;12.844;2023-03-21T00:51:27;19.00;53.20
76878;DHT22;65843;50.692;12.844;2023-03-21T00:52:28;19.00;53.40
76878;DHT22;65843;50.692;12.844;2023-03-21T00:53:29;19.00;53.20
76878;DHT22;65843;50.692;12.844;2023-03-21T00:54:31;19.00;53.30
76878;DHT22;65843;50.692;12.844;2023-03-21T00:55:32;19.00;53.30
76878;DHT22;65843;50.692;12.844;2023-03-21T00:56:33;19.00;53.40
76878;DHT22;65843;50.692;12.844;2023-03-21T00:57:34;19.00;53.30
76878;DHT22;65843;50.692;12.844;2023-03-21T00:58:35;19.00;53.20
76878;DHT22;65843;50.692;12.844;2023-03-21T00:59:36;19.00;53.10
76878;DHT22;65843;50.692;12.844;2023-03-21T01:00:37;19.00;52.80
76878;DHT22;65843;50.692;12.844;2023-03-21T01:01:38;19.00;52.80
76878;DHT22;65843;50.692;12.844;2023-03-21T01:02:39;19.00;52.80
76878;DHT22;65843;50.692;12.844;2023-03-21T01:03:57;19.00;53.00
76878;DHT22;65843;50.692;12.844;2023-03-21T01:05:04;19.00;52.80
76878;DHT22;65843;50.692;12.844;2023-03-21T01:06:06;19.00;52.90
76878;DHT22;65843;50.692;12.844;2023-03-21T01:07:07;19.00;52.70
76878;DHT22;65843;50.692;12.844;2023-03-21T01:08:08;19.00;52.70
76878;DHT22;65843;50.692;12.844;2023-03-21T01:09:13;19.00;52.70
76878;DHT22;65843;50.692;12.844;2023-03-21T01:10:14;19.00;52.50
76878;DHT22;65843;50.692;12.844;2023-03-21T01:11:17;19.00;52.60
76878;DHT22;65843;50.692;12.844;2023-03-21T01:12:18;19.00;52.60
76878;DHT22;65843;50.692;12.844;2023-03-21T01:13:20;19.00;52.60
76878;DHT22;65843;50.692;12.844;2023-03-21T01:14:21;19.00;52.60
76878;DHT22;65843;50.692;12.844;2023-03-21T01:15:23;19.00;52.50
76878;DHT22;65843;50.692;12.844;2023-03-21T01:16:24;19.00;52.70
76878;DHT22;65843;50.692;12.844;2023-03-21T01:17:25;19.00;52.30
76878;DHT22;65843;50.692;12.844;2023-03-21T01:18:27;19.00;52.60
76878;DHT22;65843;50.692;12.844;2023-03-21T01:19:29;19.00;52.70
76878;DHT22;65843;50.692;12.844;2023-03-21T01:20:30;19.00;52.40
76878;DHT22;65843;50.692;12.844;2023-03-21T01:21:31;19.00;51.90
76878;DHT22;65843;50.692;12.844;2023-03-21T01:22:32;19.00;52.50
76878;DHT22;65843;50.692;12.844;2023-03-21T01:23:33;19.00;52.70
76878;DHT22;65843;50.692;12.844;2023-03-21T01:24:34;19.00;52.90
76878;DHT22;65843;50.692;12.844;2023-03-21T01:25:35;19.00;52.80
76878;DHT22;65843;50.692;12.844;2023-03-21T01:26:36;19.00;52.70
76878;DHT22;65843;50.692;12.844;2023-03-21T01:27:37;19.00;52.90
76878;DHT22;65843;50.692;12.844;2023-03-21T01:28:38;19.00;52.90
76878;DHT22;65843;50.692;12.844;2023-03-21T01:29:40;19.00;52.90
76878;DHT22;65843;50.692;12.844;2023-03-21T01:30:45;19.00;52.80
76878;DHT22;65843;50.692;12.844;2023-03-21T01:31:46;19.00;52.70
76878;DHT22;65843;50.692;12.844;2023-03-21T01:32:47;19.00;52.80
76878;DHT22;65843;50.692;12.844;2023-03-21T01:33:48;19.00;52.60
76878;DHT22;65843;50.692;12.844;2023-03-21T01:34:49;19.00;52.70
76878;DHT22;65843;50.692;12.844;2023-03-21T01:35:50;19.00;52.70
76878;DHT22;65843;50.692;12.844;2023-03-21T01:36:51;19.00;52.50
76878;DHT22;65843;50.692;12.844;2023-03-21T01:37:52;19.00;52.30
76878;DHT22;65843;50.692;12.844;2023-03-21T01:38:53;19.00;52.30
76878;DHT22;65843;50.692;12.844;2023-03-21T01:39:54;19.00;52.50
76878;DHT22;65843;50.692;12.844;2023-03-21T01:40:55;19.00;52.30
76878;DHT22;65843;50.692;12.844;2023-03-21T01:41:56;19.00;52.30
76878;DHT22;65843;50.692;12.844;2023-03-21T01:42:57;19.00;52.10
76878;DHT22;65843;50.692;12.844;2023-03-21T01:43:58;19.00;52.20
76878;DHT22;65843;50.692;12.844;2023-03-21T01:45:00;19.00;52.10
76878;DHT22;65843;50.692;12.844;2023-03-21T01:47:09;19.00;52.30
76878;DHT22;65843;50.692;12.844;2023-03-21T01:48:10;19.00;52.20
76878;DHT22;65843;50.692;12.844;2023-03-21T01:50:15;19.00;51.90
76878;DHT22;65843;50.692;12.844;2023-03-21T01:51:17;19.00;52.00
76878;DHT22;65843;50.692;12.844;2023-03-21T01:52:20;19.00;51.90
76878;DHT22;65843;50.692;12.844;2023-03-21T01:53:24;19.00;51.90
76878;DHT22;65843;50.692;12.844;2023-03-21T01:54:31;19.00;51.90
76878;DHT22;65843;50.692;12.844;2023-03-21T01:55:32;19.00;51.80
76878;DHT22;65843;50.692;12.844;2023-03-21T01:56:35;19.00;52.00
76878;DHT22;65843;50.692;12.844;2023-03-21T01:57:37;19.00;51.80
76878;DHT22;65843;50.692;12.844;2023-03-21T01:58:41;19.00;51.90
76878;DHT22;65843;50.692;12.844;2023-03-21T01:59:46;19.00;51.80
76878;DHT22;65843;50.692;12.844;2023-03-21T02:00:49;19.00;51.80
76878;DHT22;65843;50.692;12.844;2023-03-21T02:01:51;19.00;51.60
76878;DHT22;65843;50.692;12.844;2023-03-21T02:02:52;18.90;51.70
76878;DHT22;65843;50.692;12.844;2023-03-21T02:03:59;18.90;51.60
76878;DHT22;65843;50.692;12.844;2023-03-21T02:05:03;18.90;51.60
76878;DHT22;65843;50.692;12.844;2023-03-21T02:06:04;18.90;51.70
76878;DHT22;65843;50.692;12.844;2023-03-21T02:07:09;18.90;51.50
76878;DHT22;65843;50.692;12.844;2023-03-21T02:08:11;18.90;51.70
76878;DHT22;65843;50.692;12.844;2023-03-21T02:09:15;19.00;51.70
76878;DHT22;65843;50.692;12.844;2023-03-21T02:10:17;18.90;51.30
76878;DHT22;65843;50.692;12.844;2023-03-21T02:11:18;18.90;51.40
76878;DHT22;65843;50.692;12.844;2023-03-21T02:12:22;18.90;51.40
76878;DHT22;65843;50.692;12.844;2023-03-21T02:13:23;18.90;51.40
76878;DHT22;65843;50.692;12.844;2023-03-21T02:14:24;18.90;51.50
76878;DHT22;65843;50.692;12.844;2023-03-21T02:15:25;18.90;51.10
76878;DHT22;65843;50.692;12.844;2023-03-21T02:16:33;18.90;51.60
76878;DHT22;65843;50.692;12.844;2023-03-21T02:17:57;18.90;51.10
76878;DHT22;65843;50.692;12.844;2023-03-21T02:19:07;18.90;51.30
76878;DHT22;65843;50.692;12.844;2023-03-21T02:20:26;18.90;51.30
76878;DHT22;65843;50.692;12.844;2023-03-21T02:23:01;18.90;51.70
76878;DHT22;65843;50.692;12.844;2023-03-21T02:26:53;18.90;51.60
76878;DHT22;65843;50.692;12.844;2023-03-21T02:27:58;18.90;51.20
76878;DHT22;65843;50.692;12.844;2023-03-21T02:29:08;18.90;51.30
76878;DHT22;65843;50.692;12.844;2023-03-21T02:31:24;18.90;51.50
76878;DHT22;65843;50.692;12.844;2023-03-21T02:36:06;18.90;51.40
76878;DHT22;65843;50.692;12.844;2023-03-21T02:39:51;18.80;51.10
76878;DHT22;65843;50.692;12.844;2023-03-21T02:40:59;18.90;51.20
76878;DHT22;65843;50.692;12.844;2023-03-21T02:43:12;18.90;51.20
76878;DHT22;65843;50.692;12.844;2023-03-21T02:46:46;18.90;51.50
76878;DHT22;65843;50.692;12.844;2023-03-21T02:47:54;18.90;51.20
76878;DHT22;65843;50.692;12.844;2023-03-21T02:49:08;18.90;51.20
76878;DHT22;65843;50.692;12.844;2023-03-21T02:51:27;18.90;51.10
76878;DHT22;65843;50.692;12.844;2023-03-21T02:52:31;18.90;51.50
76878;DHT22;65843;50.692;12.844;2023-03-21T02:53:33;18.90;51.50
76878;DHT22;65843;50.692;12.844;2023-03-21T02:54:37;18.90;51.20
76878;DHT22;65843;50.692;12.844;2023-03-21T02:55:38;18.90;51.30
76878;DHT22;65843;50.692;12.844;2023-03-21T02:56:42;18.90;51.10
76878;DHT22;65843;50.692;12.844;2023-03-21T02:57:45;18.90;50.90
76878;DHT22;65843;50.692;12.844;2023-03-21T02:58:48;18.80;51.40
76878;DHT22;65843;50.692;12.844;2023-03-21T02:59:49;18.90;51.30
76878;DHT22;65843;50.692;12.844;2023-03-21T03:00:50;18.80;51.20
76878;DHT22;65843;50.692;12.844;2023-03-21T03:01:54;18.80;50.90
76878;DHT22;65843;50.692;12.844;2023-03-21T03:02:56;18.80;51.10
76878;DHT22;65843;50.692;12.844;2023-03-21T03:03:57;18.80;51.10
76878;DHT22;65843;50.692;12.844;2023-03-21T03:04:58;18.80;51.00
76878;DHT22;65843;50.692;12.844;2023-03-21T03:06:00;18.80;51.10
76878;DHT22;65843;50.692;12.844;2023-03-21T03:11:32;18.80;51.20
76878;DHT22;65843;50.692;12.844;2023-03-21T03:12:43;18.80;51.50
76878;DHT22;65843;50.692;12.844;2023-03-21T03:15:06;18.80;51.30
76878;DHT22;65843;50.692;12.844;2023-03-21T03:16:15;18.80;51.30
76878;DHT22;65843;50.692;12.844;2023-03-21T03:19:25;18.80;51.50
76878;DHT22;65843;50.692;12.844;2023-03-21T03:20:32;18.80;51.40
76878;DHT22;65843;50.692;12.844;2023-03-21T03:21:38;18.80;51.30
76878;DHT22;65843;50.692;12.844;2023-03-21T03:22:42;18.80;51.40
76878;DHT22;65843;50.692;12.844;2023-03-21T03:23:47;18.80;51.30
76878;DHT22;65843;50.692;12.844;2023-03-21T03:25:02;18.80;51.40
76878;DHT22;65843;50.692;12.844;2023-03-21T03:26:07;18.80;51.00
76878;DHT22;65843;50.692;12.844;2023-03-21T03:27:16;18.80;51.20
76878;DHT22;65843;50.692;12.844;2023-03-21T03:28:22;18.80;51.40
76878;DHT22;65843;50.692;12.844;2023-03-21T03:29:24;18.80;51.30
76878;DHT22;65843;50.692;12.844;2023-03-21T03:30:26;18.80;51.50
76878;DHT22;65843;50.692;12.844;2023-03-21T03:31:31;18.80;51.30
76878;DHT22;65843;50.692;12.844;2023-03-21T03:32:34;18.80;51.20
76878;DHT22;65843;50.692;12.844;2023-03-21T03:33:37;18.80;51.50
76878;DHT22;65843;50.692;12.844;2023-03-21T03:34:40;18.70;51.50
76878;DHT22;65843;50.692;12.844;2023-03-21T03:35:42;18.80;51.50
76878;DHT22;65843;50.692;12.844;2023-03-21T03:36:44;18.70;51.80
76878;DHT22;65843;50.692;12.844;2023-03-21T03:37:48;18.70;51.50
76878;DHT22;65843;50.692;12.844;2023-03-21T03:38:50;18.70;51.60
76878;DHT22;65843;50.692;12.844;2023-03-21T03:41:11;18.70;51.40
76878;DHT22;65843;50.692;12.844;2023-03-21T03:42:20;18.70;51.40
76878;DHT22;65843;50.692;12.844;2023-03-21T03:43:22;18.70;51.40
76878;DHT22;65843;50.692;12.844;2023-03-21T03:44:26;18.70;51.80
76878;DHT22;65843;50.692;12.844;2023-03-21T03:45:29;18.70;51.50
76878;DHT22;65843;50.692;12.844;2023-03-21T03:46:31;18.70;51.50
76878;DHT22;65843;50.692;12.844;2023-03-21T03:50:16;18.70;51.10
76878;DHT22;65843;50.692;12.844;2023-03-21T03:51:28;18.70;51.20
76878;DHT22;65843;50.692;12.844;2023-03-21T03:52:32;18.70;51.10
76878;DHT22;65843;50.692;12.844;2023-03-21T03:53:36;18.70;51.30
76878;DHT22;65843;50.692;12.844;2023-03-21T03:54:41;18.70;51.20
76878;DHT22;65843;50.692;12.844;2023-03-21T03:55:43;18.70;51.00
76878;DHT22;65843;50.692;12.844;2023-03-21T03:56:44;18.70;51.10
76878;DHT22;65843;50.692;12.844;2023-03-21T03:57:46;18.70;51.10
76878;DHT22;65843;50.692;12.844;2023-03-21T03:58:47;18.70;51.10
76878;DHT22;65843;50.692;12.844;2023-03-21T03:59:48;18.70;51.20
76878;DHT22;65843;50.692;12.844;2023-03-21T04:00:50;18.70;51.00
76878;DHT22;65843;50.692;12.844;2023-03-21T04:01:52;18.70;51.10
76878;DHT22;65843;50.692;12.844;2023-03-21T04:02:53;18.70;51.20
76878;DHT22;65843;50.692;12.844;2023-03-21T04:03:54;18.70;51.10
76878;DHT22;65843;50.692;12.844;2023-03-21T04:04:55;18.70;51.10
76878;DHT22;65843;50.692;12.844;2023-03-21T04:05:57;18.70;51.10
76878;DHT22;65843;50.692;12.844;2023-03-21T04:06:58;18.70;51.00
76878;DHT22;65843;50.692;12.844;2023-03-21T04:07:59;18.70;51.30
76878;DHT22;65843;50.692;12.844;2023-03-21T04:09:00;18.70;50.90
76878;DHT22;65843;50.692;12.844;2023-03-21T04:10:01;18.70;51.10
76878;DHT22;65843;50.692;12.844;2023-03-21T04:11:02;18.70;51.20
76878;DHT22;65843;50.692;12.844;2023-03-21T04:12:03;18.70;51.00
76878;DHT22;65843;50.692;12.844;2023-03-21T04:13:04;18.70;51.00
76878;DHT22;65843;50.692;12.844;2023-03-21T04:14:05;18.70;50.90
76878;DHT22;65843;50.692;12.844;2023-03-21T04:15:06;18.70;51.00
76878;DHT22;65843;50.692;12.844;2023-03-21T04:16:08;18.70;51.70
76878;DHT22;65843;50.692;12.844;2023-03-21T04:17:09;18.70;51.40
76878;DHT22;65843;50.692;12.844;2023-03-21T04:18:11;18.70;51.30
76878;DHT22;65843;50.692;12.844;2023-03-21T04:19:12;18.70;51.10
76878;DHT22;65843;50.692;12.844;2023-03-21T04:20:13;18.70;51.10
76878;DHT22;65843;50.692;12.844;2023-03-21T04:21:13;18.70;50.70
76878;DHT22;65843;50.692;12.844;2023-03-21T04:22:15;18.70;51.00
76878;DHT22;65843;50.692;12.844;2023-03-21T04:23:17;18.70;50.90
76878;DHT22;65843;50.692;12.844;2023-03-21T04:24:21;18.70;50.90
76878;DHT22;65843;50.692;12.844;2023-03-21T04:25:22;18.70;51.00
76878;DHT22;65843;50.692;12.844;2023-03-21T04:26:23;18.70;50.80
76878;DHT22;65843;50.692;12.844;2023-03-21T04:27:24;18.70;50.90
76878;DHT22;65843;50.692;12.844;2023-03-21T04:28:25;18.70;50.80
76878;DHT22;65843;50.692;12.844;2023-03-21T04:29:25;18.70;50.90
76878;DHT22;65843;50.692;12.844;2023-03-21T04:30:29;18.70;50.90
76878;DHT22;65843;50.692;12.844;2023-03-21T04:31:33;18.70;51.00
76878;DHT22;65843;50.692;12.844;2023-03-21T04:32:35;18.70;50.90
76878;DHT22;65843;50.692;12.844;2023-03-21T04:33:39;18.70;50.90
76878;DHT22;65843;50.692;12.844;2023-03-21T04:34:42;18.70;50.70
76878;DHT22;65843;50.692;12.844;2023-03-21T04:35:49;18.70;50.50
76878;DHT22;65843;50.692;12.844;2023-03-21T04:36:50;18.70;50.80
76878;DHT22;65843;50.692;12.844;2023-03-21T04:37:53;18.70;50.90
76878;DHT22;65843;50.692;12.844;2023-03-21T04:38:55;18.70;50.80
76878;DHT22;65843;50.692;12.844;2023-03-21T04:40:00;18.70;51.00
76878;DHT22;65843;50.692;12.844;2023-03-21T04:41:06;18.70;50.90
76878;DHT22;65843;50.692;12.844;2023-03-21T04:42:07;18.70;50.70
76878;DHT22;65843;50.692;12.844;2023-03-21T04:43:08;18.70;50.80
76878;DHT22;65843;50.692;12.844;2023-03-21T04:44:09;18.70;50.70
76878;DHT22;65843;50.692;12.844;2023-03-21T04:45:11;18.70;50.80
76878;DHT22;65843;50.692;12.844;2023-03-21T04:46:12;18.70;50.70
76878;DHT22;65843;50.692;12.844;2023-03-21T04:47:13;18.70;50.80
76878;DHT22;65843;50.692;12.844;2023-03-21T04:48:15;18.70;50.80
76878;DHT22;65843;50.692;12.844;2023-03-21T04:49:19;18.70;50.80
76878;DHT22;65843;50.692;12.844;2023-03-21T04:50:20;18.70;50.80
76878;DHT22;65843;50.692;12.844;2023-03-21T04:51:21;18.70;50.70
76878;DHT22;65843;50.692;12.844;2023-03-21T04:52:22;18.70;50.50
76878;DHT22;65843;50.692;12.844;2023-03-21T04:53:23;18.70;50.60
76878;DHT22;65843;50.692;12.844;2023-03-21T04:54:24;18.70;50.70
76878;DHT22;65843;50.692;12.844;2023-03-21T04:55:25;18.60;50.70
76878;DHT22;65843;50.692;12.844;2023-03-21T04:56:29;18.60;50.90
76878;DHT22;65843;50.692;12.844;2023-03-21T04:57:33;18.60;50.60
76878;DHT22;65843;50.692;12.844;2023-03-21T04:58:34;18.60;50.60
76878;DHT22;65843;50.692;12.844;2023-03-21T04:59:35;18.60;50.60
76878;DHT22;65843;50.692;12.844;2023-03-21T05:00:36;18.60;50.60
76878;DHT22;65843;50.692;12.844;2023-03-21T05:01:38;18.60;50.60
76878;DHT22;65843;50.692;12.844;2023-03-21T05:02:40;18.60;50.70
76878;DHT22;65843;50.692;12.844;2023-03-21T05:03:41;18.60;50.70
76878;DHT22;65843;50.692;12.844;2023-03-21T05:04:42;18.60;50.60
76878;DHT22;65843;50.692;12.844;2023-03-21T05:05:43;18.60;50.70
76878;DHT22;65843;50.692;12.844;2023-03-21T05:06:44;18.60;50.70
76878;DHT22;65843;50.692;12.844;2023-03-21T05:07:45;18.60;50.80
76878;DHT22;65843;50.692;12.844;2023-03-21T05:08:46;18.60;51.10
76878;DHT22;65843;50.692;12.844;2023-03-21T05:09:47;18.60;50.60
76878;DHT22;65843;50.692;12.844;2023-03-21T05:10:48;18.60;50.80
76878;DHT22;65843;50.692;12.844;2023-03-21T05:11:49;18.60;50.70
76878;DHT22;65843;50.692;12.844;2023-03-21T05:12:50;18.60;51.00
76878;DHT22;65843;50.692;12.844;2023-03-21T05:13:51;18.60;50.70
76878;DHT22;65843;50.692;12.844;2023-03-21T05:14:52;18.60;50.70
76878;DHT22;65843;50.692;12.844;2023-03-21T05:15:53;18.60;50.60
76878;DHT22;65843;50.692;12.844;2023-03-21T05:16:54;18.60;50.50
76878;DHT22;65843;50.692;12.844;2023-03-21T05:17:56;18.60;50.70
76878;DHT22;65843;50.692;12.844;2023-03-21T05:18:58;18.60;50.70
76878;DHT22;65843;50.692;12.844;2023-03-21T05:20:03;18.60;50.70
76878;DHT22;65843;50.692;12.844;2023-03-21T05:21:05;18.60;50.50
76878;DHT22;65843;50.692;12.844;2023-03-21T05:22:10;18.60;50.50
76878;DHT22;65843;50.692;12.844;2023-03-21T05:23:11;18.60;50.70
76878;DHT22;65843;50.692;12.844;2023-03-21T05:24:16;18.60;51.00
76878;DHT22;65843;50.692;12.844;2023-03-21T05:25:17;18.60;50.70
76878;DHT22;65843;50.692;12.844;2023-03-21T05:26:21;18.60;51.00
76878;DHT22;65843;50.692;12.844;2023-03-21T05:27:22;18.70;50.70
76878;DHT22;65843;50.692;12.844;2023-03-21T05:28:35;18.70;50.90
76878;DHT22;65843;50.692;12.844;2023-03-21T05:29:36;18.70;51.00
76878;DHT22;65843;50.692;12.844;2023-03-21T05:30:37;18.70;50.80
76878;DHT22;65843;50.692;12.844;2023-03-21T05:31:38;18.70;50.90
76878;DHT22;65843;50.692;12.844;2023-03-21T05:32:39;18.60;50.80
76878;DHT22;65843;50.692;12.844;2023-03-21T05:33:40;18.60;51.00
76878;DHT22;65843;50.692;12.844;2023-03-21T05:34:41;18.70;51.20
76878;DHT22;65843;50.692;12.844;2023-03-21T05:35:41;18.70;51.20
76878;DHT22;65843;50.692;12.844;2023-03-21T05:36:42;18.60;51.50
76878;DHT22;65843;50.692;12.844;2023-03-21T05:37:43;18.70;51.20
76878;DHT22;65843;50.692;12.844;2023-03-21T05:38:44;18.70;51.20
76878;DHT22;65843;50.692;12.844;2023-03-21T05:39:46;18.70;51.10
76878;DHT22;65843;50.692;12.844;2023-03-21T05:40:47;18.70;50.90
76878;DHT22;65843;50.692;12.844;2023-03-21T05:41:48;18.70;50.80
76878;DHT22;65843;50.692;12.844;2023-03-21T05:42:49;18.70;51.20
76878;DHT22;65843;50.692;12.844;2023-03-21T05:43:50;18.70;51.10
76878;DHT22;65843;50.692;12.844;2023-03-21T05:44:51;18.70;50.90
76878;DHT22;65843;50.692;12.844;2023-03-21T05:45:52;18.60;51.20
76878;DHT22;65843;50.692;12.844;2023-03-21T05:46:53;18.60;51.10
76878;DHT22;65843;50.692;12.844;2023-03-21T05:47:54;18.60;51.20
76878;DHT22;65843;50.692;12.844;2023-03-21T05:48:55;18.60;51.00
76878;DHT22;65843;50.692;12.844;2023-03-21T05:49:56;18.60;51.10
76878;DHT22;65843;50.692;12.844;2023-03-21T05:50:57;18.60;51.00
76878;DHT22;65843;50.692;12.844;2023-03-21T05:51:57;18.60;51.20
76878;DHT22;65843;50.692;12.844;2023-03-21T05:52:58;18.70;51.60
76878;DHT22;65843;50.692;12.844;2023-03-21T05:53:59;18.60;51.50
76878;DHT22;65843;50.692;12.844;2023-03-21T05:55:00;18.60;51.50
76878;DHT22;65843;50.692;12.844;2023-03-21T05:56:01;18.70;51.50
76878;DHT22;65843;50.692;12.844;2023-03-21T05:57:03;18.70;51.40
76878;DHT22;65843;50.692;12.844;2023-03-21T05:58:04;18.70;51.40
76878;DHT22;65843;50.692;12.844;2023-03-21T05:59:05;18.70;51.40
76878;DHT22;65843;50.692;12.844;2023-03-21T06:00:06;18.70;51.30
76878;DHT22;65843;50.692;12.844;2023-03-21T06:01:08;18.70;51.40
76878;DHT22;65843;50.692;12.844;2023-03-21T06:02:08;18.70;51.20
76878;DHT22;65843;50.692;12.844;2023-03-21T06:03:10;18.70;50.90
76878;DHT22;65843;50.692;12.844;2023-03-21T06:04:11;18.70;51.40
76878;DHT22;65843;50.692;12.844;2023-03-21T06:05:12;18.70;52.60
76878;DHT22;65843;50.692;12.844;2023-03-21T06:06:12;18.70;53.10
76878;DHT22;65843;50.692;12.844;2023-03-21T06:07:13;18.80;53.10
76878;DHT22;65843;50.692;12.844;2023-03-21T06:08:14;18.80;53.30
76878;DHT22;65843;50.692;12.844;2023-03-21T06:09:16;18.80;53.40
76878;DHT22;65843;50.692;12.844;2023-03-21T06:10:17;18.80;53.40
76878;DHT22;65843;50.692;12.844;2023-03-21T06:11:19;18.90;53.50
76878;DHT22;65843;50.692;12.844;2023-03-21T06:12:22;18.90;53.20
76878;DHT22;65843;50.692;12.844;2023-03-21T06:13:23;18.90;53.40
76878;DHT22;65843;50.692;12.844;2023-03-21T06:14:24;18.90;53.30
76878;DHT22;65843;50.692;12.844;2023-03-21T06:15:25;18.90;53.10
76878;DHT22;65843;50.692;12.844;2023-03-21T06:16:26;18.90;52.00
76878;DHT22;65843;50.692;12.844;2023-03-21T06:17:28;19.00;52.80
76878;DHT22;65843;50.692;12.844;2023-03-21T06:18:29;19.00;52.10
76878;DHT22;65843;50.692;12.844;2023-03-21T06:19:30;19.00;52.60
76878;DHT22;65843;50.692;12.844;2023-03-21T06:20:31;19.00;52.50
76878;DHT22;65843;50.692;12.844;2023-03-21T06:21:33;19.00;52.40
76878;DHT22;65843;50.692;12.844;2023-03-21T06:22:38;19.00;52.30
76878;DHT22;65843;50.692;12.844;2023-03-21T06:23:38;18.90;52.20
76878;DHT22;65843;50.692;12.844;2023-03-21T06:24:39;18.90;52.30
76878;DHT22;65843;50.692;12.844;2023-03-21T06:25:40;18.90;51.80
76878;DHT22;65843;50.692;12.844;2023-03-21T06:26:41;18.90;51.60
76878;DHT22;65843;50.692;12.844;2023-03-21T06:27:43;18.90;51.80
76878;DHT22;65843;50.692;12.844;2023-03-21T06:28:44;18.90;51.60
76878;DHT22;65843;50.692;12.844;2023-03-21T06:29:45;18.90;51.60
76878;DHT22;65843;50.692;12.844;2023-03-21T06:30:46;18.90;51.60
76878;DHT22;65843;50.692;12.844;2023-03-21T06:31:46;18.80;51.50
76878;DHT22;65843;50.692;12.844;2023-03-21T06:32:47;18.80;51.50
76878;DHT22;65843;50.692;12.844;2023-03-21T06:33:48;18.80;51.10
76878;DHT22;65843;50.692;12.844;2023-03-21T06:34:49;18.80;51.50
76878;DHT22;65843;50.692;12.844;2023-03-21T06:35:51;18.80;51.30
76878;DHT22;65843;50.692;12.844;2023-03-21T06:36:52;18.80;51.20
76878;DHT22;65843;50.692;12.844;2023-03-21T06:37:54;18.80;51.30
76878;DHT22;65843;50.692;12.844;2023-03-21T06:38:57;18.80;51.30
76878;DHT22;65843;50.692;12.844;2023-03-21T06:39:58;18.80;51.40
76878;DHT22;65843;50.692;12.844;2023-03-21T06:40:59;18.80;51.20
76878;DHT22;65843;50.692;12.844;2023-03-21T06:42:00;18.80;51.30
76878;DHT22;65843;50.692;12.844;2023-03-21T06:43:01;18.80;51.10
76878;DHT22;65843;50.692;12.844;2023-03-21T06:44:02;18.80;51.00
76878;DHT22;65843;50.692;12.844;2023-03-21T06:45:03;18.80;51.10
76878;DHT22;65843;50.692;12.844;2023-03-21T06:46:04;18.80;50.90
76878;DHT22;65843;50.692;12.844;2023-03-21T06:47:05;18.80;51.10
76878;DHT22;65843;50.692;12.844;2023-03-21T06:48:07;18.80;51.10
76878;DHT22;65843;50.692;12.844;2023-03-21T06:49:08;18.80;51.10
76878;DHT22;65843;50.692;12.844;2023-03-21T06:50:09;18.80;51.10
76878;DHT22;65843;50.692;12.844;2023-03-21T06:51:11;18.80;51.00
76878;DHT22;65843;50.692;12.844;2023-03-21T06:52:12;18.80;50.90
76878;DHT22;65843;50.692;12.844;2023-03-21T06:53:13;18.80;50.80
76878;DHT22;65843;50.692;12.844;2023-03-21T06:54:14;18.80;50.90
76878;DHT22;65843;50.692;12.844;2023-03-21T06:55:17;18.80;50.80
76878;DHT22;65843;50.692;12.844;2023-03-21T06:56:19;18.80;50.90
76878;DHT22;65843;50.692;12.844;2023-03-21T06:57:19;18.80;50.80
76878;DHT22;65843;50.692;12.844;2023-03-21T06:58:21;18.80;50.80